Mongul, Pennsylvania
Current Conditions -  °F | °C
As of 11:53 PM on Saturday 22 Nov 2014 (Local Time) from KRYT Reporting Station
Scattered Clouds Scattered Clouds  
Wind Chill: 38°   Ceiling: Unl
Heat Index: 38°   Visibility: 10mi
Dew Point: 19°   Wind: 0mph
Humidity: 47%   Direction: NA
Pressure: 30.17"   Gusts: NA
Location:  40.0414°N, 77.4967°W
Report Text: KRYT 230453Z AUTO 00000KT 10SM SCT100 03/M07 A3017 RMK AO2 SLP228 T00331072 400611078 $
Loading
Personal Weather Stations






























Interactive Weather Map New forecast layout! Learn more

10-Day Weather Forecast

Advertisements
Track Severe Weather on mobile